sensor_id;sensor_type;location;lat;lon;timestamp;P1;durP1;ratioP1;P2;durP2;ratioP2
68821;SDS011;55834;50.870;4.606;2023-02-24T00:00:42;11.60;;;1.92;;
68821;SDS011;55834;50.870;4.606;2023-02-24T00:03:16;14.85;;;3.13;;
68821;SDS011;55834;50.870;4.606;2023-02-24T00:05:41;12.03;;;2.63;;
68821;SDS011;55834;50.870;4.606;2023-02-24T00:08:08;11.43;;;3.05;;
68821;SDS011;55834;50.870;4.606;2023-02-24T00:10:34;14.60;;;3.40;;
68821;SDS011;55834;50.870;4.606;2023-02-24T00:13:01;11.55;;;2.13;;
68821;SDS011;55834;50.870;4.606;2023-02-24T00:15:28;15.00;;;2.72;;
68821;SDS011;55834;50.870;4.606;2023-02-24T00:17:53;16.93;;;3.23;;
68821;SDS011;55834;50.870;4.606;2023-02-24T00:20:19;16.90;;;3.47;;
68821;SDS011;55834;50.870;4.606;2023-02-24T00:22:44;8.27;;;1.70;;
68821;SDS011;55834;50.870;4.606;2023-02-24T00:25:10;7.78;;;2.25;;
68821;SDS011;55834;50.870;4.606;2023-02-24T00:27:36;17.40;;;3.22;;
68821;SDS011;55834;50.870;4.606;2023-02-24T00:30:02;11.10;;;2.80;;
68821;SDS011;55834;50.870;4.606;2023-02-24T00:32:29;8.75;;;1.88;;
68821;SDS011;55834;50.870;4.606;2023-02-24T00:34:55;12.15;;;2.40;;
68821;SDS011;55834;50.870;4.606;2023-02-24T00:37:20;14.68;;;2.95;;
68821;SDS011;55834;50.870;4.606;2023-02-24T00:39:48;8.88;;;1.80;;
68821;SDS011;55834;50.870;4.606;2023-02-24T00:42:15;6.22;;;1.50;;
68821;SDS011;55834;50.870;4.606;2023-02-24T00:44:44;13.82;;;2.67;;
68821;SDS011;55834;50.870;4.606;2023-02-24T00:47:11;9.88;;;1.83;;
68821;SDS011;55834;50.870;4.606;2023-02-24T00:49:37;8.98;;;2.08;;
68821;SDS011;55834;50.870;4.606;2023-02-24T00:52:10;13.88;;;3.05;;
68821;SDS011;55834;50.870;4.606;2023-02-24T00:54:37;9.88;;;3.05;;
68821;SDS011;55834;50.870;4.606;2023-02-24T00:57:03;12.80;;;2.28;;
68821;SDS011;55834;50.870;4.606;2023-02-24T00:59:32;8.35;;;2.35;;
68821;SDS011;55834;50.870;4.606;2023-02-24T01:01:58;12.10;;;2.47;;
68821;SDS011;55834;50.870;4.606;2023-02-24T01:04:23;12.95;;;2.20;;
68821;SDS011;55834;50.870;4.606;2023-02-24T01:06:50;18.73;;;2.90;;
68821;SDS011;55834;50.870;4.606;2023-02-24T01:09:18;14.43;;;3.13;;
68821;SDS011;55834;50.870;4.606;2023-02-24T01:11:46;8.68;;;2.42;;
68821;SDS011;55834;50.870;4.606;2023-02-24T01:14:32;8.55;;;1.67;;
68821;SDS011;55834;50.870;4.606;2023-02-24T01:16:58;17.73;;;2.97;;
68821;SDS011;55834;50.870;4.606;2023-02-24T01:19:26;8.52;;;2.33;;
68821;SDS011;55834;50.870;4.606;2023-02-24T01:21:57;13.63;;;2.88;;
68821;SDS011;55834;50.870;4.606;2023-02-24T01:24:26;14.18;;;3.33;;
68821;SDS011;55834;50.870;4.606;2023-02-24T01:26:53;8.82;;;1.58;;
68821;SDS011;55834;50.870;4.606;2023-02-24T01:29:19;5.32;;;1.63;;
68821;SDS011;55834;50.870;4.606;2023-02-24T01:31:46;8.75;;;1.85;;
68821;SDS011;55834;50.870;4.606;2023-02-24T01:34:14;9.63;;;3.05;;
68821;SDS011;55834;50.870;4.606;2023-02-24T01:36:40;9.27;;;2.20;;
68821;SDS011;55834;50.870;4.606;2023-02-24T01:39:12;8.43;;;2.47;;
68821;SDS011;55834;50.870;4.606;2023-02-24T01:41:40;11.60;;;2.45;;
68821;SDS011;55834;50.870;4.606;2023-02-24T01:46:41;9.95;;;2.92;;
68821;SDS011;55834;50.870;4.606;2023-02-24T01:49:19;17.50;;;3.58;;
68821;SDS011;55834;50.870;4.606;2023-02-24T01:51:50;13.65;;;2.35;;
68821;SDS011;55834;50.870;4.606;2023-02-24T01:54:22;9.70;;;2.17;;
68821;SDS011;55834;50.870;4.606;2023-02-24T01:56:52;19.23;;;3.65;;
68821;SDS011;55834;50.870;4.606;2023-02-24T01:59:20;10.02;;;2.63;;
68821;SDS011;55834;50.870;4.606;2023-02-24T02:01:50;15.27;;;2.85;;
68821;SDS011;55834;50.870;4.606;2023-02-24T02:06:47;15.73;;;3.67;;
68821;SDS011;55834;50.870;4.606;2023-02-24T02:09:13;10.05;;;3.03;;
68821;SDS011;55834;50.870;4.606;2023-02-24T02:11:40;13.05;;;3.35;;
68821;SDS011;55834;50.870;4.606;2023-02-24T02:14:06;8.32;;;2.33;;
68821;SDS011;55834;50.870;4.606;2023-02-24T02:24:56;13.60;;;1.60;;
68821;SDS011;55834;50.870;4.606;2023-02-24T02:36:06;8.93;;;1.88;;
68821;SDS011;55834;50.870;4.606;2023-02-24T02:44:19;12.55;;;1.85;;
68821;SDS011;55834;50.870;4.606;2023-02-24T02:47:00;9.55;;;1.90;;
68821;SDS011;55834;50.870;4.606;2023-02-24T02:49:35;8.60;;;2.10;;
68821;SDS011;55834;50.870;4.606;2023-02-24T02:52:05;8.35;;;1.90;;
68821;SDS011;55834;50.870;4.606;2023-02-24T02:57:20;11.13;;;2.17;;
68821;SDS011;55834;50.870;4.606;2023-02-24T02:59:56;10.13;;;2.10;;
68821;SDS011;55834;50.870;4.606;2023-02-24T03:02:27;8.63;;;2.15;;
68821;SDS011;55834;50.870;4.606;2023-02-24T03:05:02;5.03;;;1.73;;
68821;SDS011;55834;50.870;4.606;2023-02-24T03:07:32;11.82;;;2.08;;
68821;SDS011;55834;50.870;4.606;2023-02-24T03:10:05;8.93;;;1.50;;
68821;SDS011;55834;50.870;4.606;2023-02-24T03:12:35;6.15;;;1.20;;
68821;SDS011;55834;50.870;4.606;2023-02-24T03:15:05;11.60;;;3.80;;
68821;SDS011;55834;50.870;4.606;2023-02-24T03:17:36;9.55;;;2.17;;
68821;SDS011;55834;50.870;4.606;2023-02-24T03:20:10;8.80;;;2.33;;
68821;SDS011;55834;50.870;4.606;2023-02-24T03:25:35;12.32;;;1.80;;
68821;SDS011;55834;50.870;4.606;2023-02-24T03:28:11;11.10;;;3.10;;
68821;SDS011;55834;50.870;4.606;2023-02-24T03:30:43;6.78;;;2.05;;
68821;SDS011;55834;50.870;4.606;2023-02-24T03:33:26;9.90;;;2.10;;
68821;SDS011;55834;50.870;4.606;2023-02-24T03:35:59;7.88;;;2.05;;
68821;SDS011;55834;50.870;4.606;2023-02-24T03:38:26;13.40;;;2.20;;
68821;SDS011;55834;50.870;4.606;2023-02-24T03:40:54;7.28;;;2.05;;
68821;SDS011;55834;50.870;4.606;2023-02-24T03:43:30;10.15;;;2.03;;
68821;SDS011;55834;50.870;4.606;2023-02-24T03:45:58;10.80;;;2.85;;
68821;SDS011;55834;50.870;4.606;2023-02-24T03:48:28;10.43;;;1.77;;
68821;SDS011;55834;50.870;4.606;2023-02-24T03:50:55;10.38;;;2.90;;
68821;SDS011;55834;50.870;4.606;2023-02-24T03:53:30;14.15;;;2.88;;
68821;SDS011;55834;50.870;4.606;2023-02-24T03:59:03;12.68;;;2.45;;
68821;SDS011;55834;50.870;4.606;2023-02-24T04:01:58;6.05;;;1.83;;
68821;SDS011;55834;50.870;4.606;2023-02-24T04:12:19;6.60;;;1.77;;
68821;SDS011;55834;50.870;4.606;2023-02-24T04:17:43;5.20;;;1.33;;
68821;SDS011;55834;50.870;4.606;2023-02-24T04:20:11;7.75;;;1.55;;
68821;SDS011;55834;50.870;4.606;2023-02-24T04:22:40;8.23;;;1.80;;
68821;SDS011;55834;50.870;4.606;2023-02-24T04:25:08;7.22;;;2.45;;
68821;SDS011;55834;50.870;4.606;2023-02-24T04:27:38;4.38;;;1.48;;
68821;SDS011;55834;50.870;4.606;2023-02-24T04:30:05;12.02;;;1.88;;
68821;SDS011;55834;50.870;4.606;2023-02-24T04:32:35;6.43;;;1.58;;
68821;SDS011;55834;50.870;4.606;2023-02-24T04:35:05;7.28;;;1.40;;
68821;SDS011;55834;50.870;4.606;2023-02-24T04:37:34;5.82;;;1.25;;
68821;SDS011;55834;50.870;4.606;2023-02-24T04:40:00;5.20;;;1.48;;
68821;SDS011;55834;50.870;4.606;2023-02-24T04:42:26;15.32;;;2.00;;
68821;SDS011;55834;50.870;4.606;2023-02-24T04:44:52;4.03;;;1.73;;
68821;SDS011;55834;50.870;4.606;2023-02-24T04:47:18;9.07;;;2.30;;
68821;SDS011;55834;50.870;4.606;2023-02-24T04:49:44;6.88;;;1.77;;
68821;SDS011;55834;50.870;4.606;2023-02-24T04:52:09;8.55;;;1.35;;
68821;SDS011;55834;50.870;4.606;2023-02-24T04:54:35;6.78;;;1.70;;
68821;SDS011;55834;50.870;4.606;2023-02-24T04:57:02;8.75;;;1.50;;
68821;SDS011;55834;50.870;4.606;2023-02-24T04:59:30;9.88;;;2.33;;
68821;SDS011;55834;50.870;4.606;2023-02-24T05:01:55;9.02;;;2.00;;
68821;SDS011;55834;50.870;4.606;2023-02-24T05:04:25;6.30;;;2.13;;
68821;SDS011;55834;50.870;4.606;2023-02-24T05:06:51;7.85;;;1.85;;
68821;SDS011;55834;50.870;4.606;2023-02-24T05:09:17;5.63;;;1.27;;
68821;SDS011;55834;50.870;4.606;2023-02-24T05:11:43;3.13;;;1.40;;
68821;SDS011;55834;50.870;4.606;2023-02-24T05:14:11;3.50;;;1.90;;
68821;SDS011;55834;50.870;4.606;2023-02-24T05:16:44;6.28;;;1.52;;
68821;SDS011;55834;50.870;4.606;2023-02-24T05:19:11;3.58;;;2.38;;
68821;SDS011;55834;50.870;4.606;2023-02-24T05:21:57;9.40;;;2.60;;
68821;SDS011;55834;50.870;4.606;2023-02-24T05:24:25;6.25;;;1.33;;
68821;SDS011;55834;50.870;4.606;2023-02-24T05:26:53;6.72;;;1.55;;
68821;SDS011;55834;50.870;4.606;2023-02-24T05:29:22;4.93;;;1.58;;
68821;SDS011;55834;50.870;4.606;2023-02-24T05:31:50;10.68;;;2.08;;
68821;SDS011;55834;50.870;4.606;2023-02-24T05:34:18;6.30;;;1.60;;
68821;SDS011;55834;50.870;4.606;2023-02-24T05:36:43;7.90;;;2.35;;
68821;SDS011;55834;50.870;4.606;2023-02-24T05:39:10;4.68;;;1.58;;
68821;SDS011;55834;50.870;4.606;2023-02-24T05:41:43;7.03;;;1.98;;
68821;SDS011;55834;50.870;4.606;2023-02-24T05:44:12;6.20;;;2.55;;
68821;SDS011;55834;50.870;4.606;2023-02-24T05:46:40;4.07;;;1.35;;
68821;SDS011;55834;50.870;4.606;2023-02-24T05:49:11;7.80;;;1.70;;
68821;SDS011;55834;50.870;4.606;2023-02-24T05:51:38;8.95;;;1.85;;
68821;SDS011;55834;50.870;4.606;2023-02-24T05:54:08;8.73;;;1.95;;
68821;SDS011;55834;50.870;4.606;2023-02-24T05:56:36;4.78;;;2.00;;
68821;SDS011;55834;50.870;4.606;2023-02-24T05:59:04;6.78;;;2.33;;
68821;SDS011;55834;50.870;4.606;2023-02-24T06:01:34;8.65;;;2.85;;
68821;SDS011;55834;50.870;4.606;2023-02-24T06:04:02;11.43;;;1.98;;
68821;SDS011;55834;50.870;4.606;2023-02-24T06:06:36;6.32;;;1.95;;
68821;SDS011;55834;50.870;4.606;2023-02-24T06:09:03;6.40;;;2.28;;
68821;SDS011;55834;50.870;4.606;2023-02-24T06:11:34;3.60;;;1.27;;
68821;SDS011;55834;50.870;4.606;2023-02-24T06:14:01;8.48;;;2.10;;
68821;SDS011;55834;50.870;4.606;2023-02-24T06:16:31;7.07;;;1.73;;
68821;SDS011;55834;50.870;4.606;2023-02-24T06:18:57;6.72;;;1.58;;
68821;SDS011;55834;50.870;4.606;2023-02-24T06:21:23;3.92;;;1.23;;
68821;SDS011;55834;50.870;4.606;2023-02-24T06:23:49;8.32;;;2.03;;
68821;SDS011;55834;50.870;4.606;2023-02-24T06:26:14;4.93;;;1.50;;
68821;SDS011;55834;50.870;4.606;2023-02-24T06:28:44;3.33;;;1.15;;
68821;SDS011;55834;50.870;4.606;2023-02-24T06:31:10;9.80;;;1.48;;
68821;SDS011;55834;50.870;4.606;2023-02-24T06:33:38;5.68;;;2.17;;
68821;SDS011;55834;50.870;4.606;2023-02-24T06:36:05;8.75;;;1.85;;
68821;SDS011;55834;50.870;4.606;2023-02-24T06:38:31;4.63;;;1.30;;
68821;SDS011;55834;50.870;4.606;2023-02-24T06:40:58;15.52;;;2.63;;
68821;SDS011;55834;50.870;4.606;2023-02-24T06:43:28;7.32;;;2.55;;
68821;SDS011;55834;50.870;4.606;2023-02-24T06:45:54;9.07;;;4.45;;
68821;SDS011;55834;50.870;4.606;2023-02-24T06:48:21;7.40;;;2.72;;
68821;SDS011;55834;50.870;4.606;2023-02-24T06:50:48;5.18;;;2.80;;
68821;SDS011;55834;50.870;4.606;2023-02-24T06:53:15;6.90;;;2.83;;
68821;SDS011;55834;50.870;4.606;2023-02-24T06:55:44;8.75;;;3.42;;
68821;SDS011;55834;50.870;4.606;2023-02-24T06:58:19;8.30;;;2.35;;
68821;SDS011;55834;50.870;4.606;2023-02-24T07:00:48;6.95;;;3.13;;
68821;SDS011;55834;50.870;4.606;2023-02-24T07:03:23;8.18;;;2.40;;
68821;SDS011;55834;50.870;4.606;2023-02-24T07:06:11;5.55;;;1.60;;
68821;SDS011;55834;50.870;4.606;2023-02-24T07:08:48;7.03;;;2.80;;
68821;SDS011;55834;50.870;4.606;2023-02-24T07:11:16;5.28;;;2.42;;
68821;SDS011;55834;50.870;4.606;2023-02-24T07:13:42;6.13;;;3.88;;
68821;SDS011;55834;50.870;4.606;2023-02-24T07:16:11;12.50;;;2.65;;
68821;SDS011;55834;50.870;4.606;2023-02-24T07:18:39;6.68;;;2.78;;
68821;SDS011;55834;50.870;4.606;2023-02-24T07:21:07;8.75;;;2.83;;
68821;SDS011;55834;50.870;4.606;2023-02-24T07:23:38;4.35;;;2.58;;
68821;SDS011;55834;50.870;4.606;2023-02-24T07:28:34;6.15;;;2.17;;
68821;SDS011;55834;50.870;4.606;2023-02-24T07:31:04;7.55;;;2.10;;
68821;SDS011;55834;50.870;4.606;2023-02-24T07:33:34;8.48;;;2.08;;
68821;SDS011;55834;50.870;4.606;2023-02-24T07:36:00;6.13;;;2.40;;
68821;SDS011;55834;50.870;4.606;2023-02-24T07:38:32;11.85;;;2.30;;
68821;SDS011;55834;50.870;4.606;2023-02-24T07:41:04;4.57;;;2.25;;
68821;SDS011;55834;50.870;4.606;2023-02-24T07:43:33;6.82;;;1.88;;
68821;SDS011;55834;50.870;4.606;2023-02-24T07:46:12;6.03;;;2.38;;
68821;SDS011;55834;50.870;4.606;2023-02-24T07:48:39;5.90;;;2.08;;
68821;SDS011;55834;50.870;4.606;2023-02-24T07:51:09;9.07;;;2.30;;
68821;SDS011;55834;50.870;4.606;2023-02-24T07:53:53;6.40;;;1.83;;
68821;SDS011;55834;50.870;4.606;2023-02-24T07:56:21;5.25;;;1.67;;
68821;SDS011;55834;50.870;4.606;2023-02-24T07:58:51;6.65;;;3.00;;
68821;SDS011;55834;50.870;4.606;2023-02-24T08:01:23;5.70;;;1.77;;
68821;SDS011;55834;50.870;4.606;2023-02-24T08:04:13;3.53;;;1.73;;
68821;SDS011;55834;50.870;4.606;2023-02-24T08:06:44;7.88;;;2.40;;
68821;SDS011;55834;50.870;4.606;2023-02-24T08:09:18;3.53;;;1.52;;
68821;SDS011;55834;50.870;4.606;2023-02-24T08:14:17;8.68;;;4.45;;
68821;SDS011;55834;50.870;4.606;2023-02-24T08:16:46;11.43;;;5.07;;
68821;SDS011;55834;50.870;4.606;2023-02-24T08:19:16;7.07;;;4.53;;
68821;SDS011;55834;50.870;4.606;2023-02-24T08:21:51;8.65;;;2.85;;
68821;SDS011;55834;50.870;4.606;2023-02-24T08:24:20;6.80;;;2.80;;
68821;SDS011;55834;50.870;4.606;2023-02-24T08:26:51;9.40;;;3.80;;
68821;SDS011;55834;50.870;4.606;2023-02-24T08:29:30;5.20;;;2.15;;
68821;SDS011;55834;50.870;4.606;2023-02-24T08:32:04;8.38;;;2.60;;
68821;SDS011;55834;50.870;4.606;2023-02-24T08:34:31;4.25;;;1.80;;
68821;SDS011;55834;50.870;4.606;2023-02-24T08:36:56;8.70;;;4.20;;
68821;SDS011;55834;50.870;4.606;2023-02-24T08:39:22;8.90;;;3.80;;
68821;SDS011;55834;50.870;4.606;2023-02-24T08:41:48;7.45;;;2.38;;
68821;SDS011;55834;50.870;4.606;2023-02-24T08:44:16;6.90;;;2.63;;
68821;SDS011;55834;50.870;4.606;2023-02-24T08:46:48;7.43;;;2.97;;
68821;SDS011;55834;50.870;4.606;2023-02-24T08:49:15;6.78;;;2.15;;
68821;SDS011;55834;50.870;4.606;2023-02-24T08:51:43;4.65;;;1.90;;
68821;SDS011;55834;50.870;4.606;2023-02-24T08:54:11;7.70;;;2.85;;
68821;SDS011;55834;50.870;4.606;2023-02-24T08:56:44;8.32;;;2.67;;
68821;SDS011;55834;50.870;4.606;2023-02-24T08:59:20;10.65;;;2.13;;
68821;SDS011;55834;50.870;4.606;2023-02-24T09:02:11;13.43;;;2.05;;
68821;SDS011;55834;50.870;4.606;2023-02-24T09:04:59;8.27;;;1.25;;
68821;SDS011;55834;50.870;4.606;2023-02-24T09:07:46;6.28;;;1.38;;
68821;SDS011;55834;50.870;4.606;2023-02-24T09:10:18;6.10;;;1.25;;
68821;SDS011;55834;50.870;4.606;2023-02-24T09:12:44;13.98;;;1.88;;
68821;SDS011;55834;50.870;4.606;2023-02-24T09:15:11;4.13;;;1.10;;
68821;SDS011;55834;50.870;4.606;2023-02-24T09:17:40;5.93;;;1.80;;
68821;SDS011;55834;50.870;4.606;2023-02-24T09:20:13;6.53;;;1.40;;
68821;SDS011;55834;50.870;4.606;2023-02-24T09:22:51;4.85;;;1.55;;
68821;SDS011;55834;50.870;4.606;2023-02-24T09:25:31;4.20;;;1.40;;
68821;SDS011;55834;50.870;4.606;2023-02-24T09:28:22;8.43;;;1.63;;
68821;SDS011;55834;50.870;4.606;2023-02-24T09:30:57;4.07;;;1.10;;
68821;SDS011;55834;50.870;4.606;2023-02-24T09:33:32;7.43;;;1.45;;
68821;SDS011;55834;50.870;4.606;2023-02-24T09:38:48;9.82;;;1.63;;
68821;SDS011;55834;50.870;4.606;2023-02-24T09:52:19;9.30;;;1.20;;
68821;SDS011;55834;50.870;4.606;2023-02-24T09:54:46;7.78;;;1.10;;
68821;SDS011;55834;50.870;4.606;2023-02-24T09:57:41;5.70;;;1.58;;
68821;SDS011;55834;50.870;4.606;2023-02-24T10:00:35;8.18;;;1.35;;
68821;SDS011;55834;50.870;4.606;2023-02-24T10:06:27;4.88;;;1.33;;
68821;SDS011;55834;50.870;4.606;2023-02-24T10:11:46;7.05;;;1.48;;
68821;SDS011;55834;50.870;4.606;2023-02-24T10:17:50;8.48;;;2.20;;
68821;SDS011;55834;50.870;4.606;2023-02-24T10:20:21;5.78;;;1.50;;
68821;SDS011;55834;50.870;4.606;2023-02-24T10:28:49;11.07;;;2.83;;
68821;SDS011;55834;50.870;4.606;2023-02-24T10:33:55;11.38;;;2.85;;
68821;SDS011;55834;50.870;4.606;2023-02-24T10:36:24;7.72;;;2.30;;
68821;SDS011;55834;50.870;4.606;2023-02-24T10:38:59;7.20;;;1.70;;
68821;SDS011;55834;50.870;4.606;2023-02-24T10:41:40;6.20;;;1.52;;
68821;SDS011;55834;50.870;4.606;2023-02-24T10:44:09;8.75;;;1.95;;
68821;SDS011;55834;50.870;4.606;2023-02-24T10:46:35;7.30;;;2.10;;
68821;SDS011;55834;50.870;4.606;2023-02-24T10:49:02;6.82;;;2.22;;
68821;SDS011;55834;50.870;4.606;2023-02-24T10:54:39;8.70;;;1.75;;
68821;SDS011;55834;50.870;4.606;2023-02-24T10:57:24;6.57;;;2.25;;
68821;SDS011;55834;50.870;4.606;2023-02-24T11:00:01;5.30;;;1.60;;
68821;SDS011;55834;50.870;4.606;2023-02-24T11:03:05;4.43;;;1.67;;
68821;SDS011;55834;50.870;4.606;2023-02-24T11:05:41;5.00;;;1.83;;
68821;SDS011;55834;50.870;4.606;2023-02-24T11:08:20;14.70;;;2.88;;
68821;SDS011;55834;50.870;4.606;2023-02-24T11:11:21;6.13;;;1.70;;
68821;SDS011;55834;50.870;4.606;2023-02-24T11:13:53;2.67;;;1.45;;
68821;SDS011;55834;50.870;4.606;2023-02-24T11:16:42;5.93;;;1.73;;
68821;SDS011;55834;50.870;4.606;2023-02-24T11:19:30;7.38;;;1.75;;
68821;SDS011;55834;50.870;4.606;2023-02-24T11:21:57;9.35;;;2.92;;
68821;SDS011;55834;50.870;4.606;2023-02-24T11:24:23;7.15;;;2.08;;
68821;SDS011;55834;50.870;4.606;2023-02-24T11:26:49;7.53;;;1.70;;
68821;SDS011;55834;50.870;4.606;2023-02-24T11:29:37;5.72;;;1.35;;
68821;SDS011;55834;50.870;4.606;2023-02-24T11:35:12;3.47;;;1.40;;
68821;SDS011;55834;50.870;4.606;2023-02-24T11:40:22;7.18;;;2.40;;
68821;SDS011;55834;50.870;4.606;2023-02-24T11:43:01;3.95;;;2.00;;
68821;SDS011;55834;50.870;4.606;2023-02-24T11:45:38;6.00;;;2.25;;
68821;SDS011;55834;50.870;4.606;2023-02-24T11:56:20;4.10;;;1.35;;
68821;SDS011;55834;50.870;4.606;2023-02-24T11:59:05;9.93;;;2.95;;
68821;SDS011;55834;50.870;4.606;2023-02-24T12:07:18;6.20;;;2.03;;
68821;SDS011;55834;50.870;4.606;2023-02-24T12:12:40;7.35;;;2.17;;
68821;SDS011;55834;50.870;4.606;2023-02-24T12:15:14;7.53;;;2.30;;
68821;SDS011;55834;50.870;4.606;2023-02-24T12:17:47;4.63;;;1.95;;
68821;SDS011;55834;50.870;4.606;2023-02-24T12:20:24;5.50;;;2.10;;
68821;SDS011;55834;50.870;4.606;2023-02-24T12:25:26;6.13;;;1.73;;
68821;SDS011;55834;50.870;4.606;2023-02-24T12:44:10;7.15;;;1.40;;
68821;SDS011;55834;50.870;4.606;2023-02-24T12:46:45;6.35;;;2.00;;
68821;SDS011;55834;50.870;4.606;2023-02-24T12:49:32;8.05;;;2.60;;
68821;SDS011;55834;50.870;4.606;2023-02-24T12:55:10;4.53;;;2.53;;
68821;SDS011;55834;50.870;4.606;2023-02-24T12:57:45;7.28;;;2.50;;
68821;SDS011;55834;50.870;4.606;2023-02-24T13:09:40;4.28;;;1.90;;
68821;SDS011;55834;50.870;4.606;2023-02-24T13:14:59;9.18;;;1.75;;
68821;SDS011;55834;50.870;4.606;2023-02-24T13:17:27;9.02;;;2.33;;
68821;SDS011;55834;50.870;4.606;2023-02-24T13:19:53;5.57;;;2.33;;
68821;SDS011;55834;50.870;4.606;2023-02-24T13:22:29;6.63;;;1.70;;
68821;SDS011;55834;50.870;4.606;2023-02-24T13:27:31;6.85;;;2.90;;
68821;SDS011;55834;50.870;4.606;2023-02-24T13:32:40;8.48;;;2.60;;
68821;SDS011;55834;50.870;4.606;2023-02-24T13:37:40;5.95;;;2.90;;
68821;SDS011;55834;50.870;4.606;2023-02-24T13:42:43;6.43;;;2.20;;
68821;SDS011;55834;50.870;4.606;2023-02-24T13:45:27;6.80;;;2.53;;
68821;SDS011;55834;50.870;4.606;2023-02-24T13:51:07;6.85;;;2.78;;
68821;SDS011;55834;50.870;4.606;2023-02-24T13:59:16;6.40;;;2.90;;
68821;SDS011;55834;50.870;4.606;2023-02-24T14:04:43;7.07;;;3.90;;
68821;SDS011;55834;50.870;4.606;2023-02-24T14:07:16;8.75;;;3.90;;
68821;SDS011;55834;50.870;4.606;2023-02-24T14:09:58;7.82;;;4.03;;
68821;SDS011;55834;50.870;4.606;2023-02-24T14:12:27;6.10;;;3.50;;
68821;SDS011;55834;50.870;4.606;2023-02-24T14:14:56;8.85;;;3.90;;
68821;SDS011;55834;50.870;4.606;2023-02-24T14:17:35;9.80;;;3.17;;
68821;SDS011;55834;50.870;4.606;2023-02-24T14:22:46;8.80;;;4.22;;
68821;SDS011;55834;50.870;4.606;2023-02-24T14:25:27;6.95;;;3.45;;
68821;SDS011;55834;50.870;4.606;2023-02-24T14:27:58;9.77;;;4.35;;
68821;SDS011;55834;50.870;4.606;2023-02-24T14:30:32;5.60;;;4.10;;
68821;SDS011;55834;50.870;4.606;2023-02-24T14:33:00;5.75;;;3.58;;
68821;SDS011;55834;50.870;4.606;2023-02-24T14:35:31;6.90;;;3.72;;
68821;SDS011;55834;50.870;4.606;2023-02-24T14:38:05;7.22;;;4.20;;
68821;SDS011;55834;50.870;4.606;2023-02-24T14:40:31;11.32;;;4.40;;
68821;SDS011;55834;50.870;4.606;2023-02-24T14:42:57;9.55;;;4.22;;
68821;SDS011;55834;50.870;4.606;2023-02-24T14:45:24;8.55;;;5.10;;
68821;SDS011;55834;50.870;4.606;2023-02-24T14:47:52;10.57;;;4.40;;
68821;SDS011;55834;50.870;4.606;2023-02-24T14:50:19;8.98;;;3.97;;
68821;SDS011;55834;50.870;4.606;2023-02-24T14:53:04;7.95;;;4.40;;
68821;SDS011;55834;50.870;4.606;2023-02-24T14:55:34;13.73;;;5.00;;
68821;SDS011;55834;50.870;4.606;2023-02-24T14:58:05;8.73;;;4.97;;
68821;SDS011;55834;50.870;4.606;2023-02-24T15:00:36;10.13;;;4.45;;
68821;SDS011;55834;50.870;4.606;2023-02-24T15:03:12;6.97;;;3.53;;
68821;SDS011;55834;50.870;4.606;2023-02-24T15:05:42;8.55;;;4.13;;
68821;SDS011;55834;50.870;4.606;2023-02-24T15:08:15;7.38;;;4.57;;
68821;SDS011;55834;50.870;4.606;2023-02-24T15:10:55;7.80;;;4.22;;
68821;SDS011;55834;50.870;4.606;2023-02-24T15:13:28;7.30;;;4.40;;
68821;SDS011;55834;50.870;4.606;2023-02-24T15:16:22;8.75;;;4.45;;
68821;SDS011;55834;50.870;4.606;2023-02-24T15:19:16;7.80;;;4.40;;
68821;SDS011;55834;50.870;4.606;2023-02-24T15:21:50;9.65;;;3.90;;
68821;SDS011;55834;50.870;4.606;2023-02-24T15:24:17;12.20;;;4.50;;
68821;SDS011;55834;50.870;4.606;2023-02-24T15:26:50;7.80;;;4.07;;
68821;SDS011;55834;50.870;4.606;2023-02-24T15:29:21;6.18;;;3.85;;
68821;SDS011;55834;50.870;4.606;2023-02-24T15:31:50;7.57;;;3.80;;
68821;SDS011;55834;50.870;4.606;2023-02-24T15:34:19;6.80;;;3.45;;
68821;SDS011;55834;50.870;4.606;2023-02-24T15:36:56;8.45;;;3.45;;
68821;SDS011;55834;50.870;4.606;2023-02-24T15:39:26;7.95;;;3.88;;
68821;SDS011;55834;50.870;4.606;2023-02-24T15:42:04;5.45;;;4.15;;
68821;SDS011;55834;50.870;4.606;2023-02-24T15:44:53;7.15;;;5.32;;
68821;SDS011;55834;50.870;4.606;2023-02-24T15:47:24;7.28;;;4.55;;
68821;SDS011;55834;50.870;4.606;2023-02-24T15:49:52;7.68;;;4.70;;
68821;SDS011;55834;50.870;4.606;2023-02-24T15:52:22;7.00;;;4.38;;
68821;SDS011;55834;50.870;4.606;2023-02-24T15:54:49;12.77;;;5.32;;
68821;SDS011;55834;50.870;4.606;2023-02-24T15:57:16;9.60;;;5.63;;
68821;SDS011;55834;50.870;4.606;2023-02-24T15:59:42;10.75;;;5.22;;
68821;SDS011;55834;50.870;4.606;2023-02-24T16:02:11;7.55;;;5.63;;
68821;SDS011;55834;50.870;4.606;2023-02-24T16:04:39;8.25;;;5.15;;
68821;SDS011;55834;50.870;4.606;2023-02-24T16:07:05;12.77;;;6.07;;
68821;SDS011;55834;50.870;4.606;2023-02-24T16:09:36;10.60;;;6.20;;
68821;SDS011;55834;50.870;4.606;2023-02-24T16:12:04;11.48;;;6.15;;
68821;SDS011;55834;50.870;4.606;2023-02-24T16:14:34;10.70;;;7.10;;
68821;SDS011;55834;50.870;4.606;2023-02-24T16:17:01;13.52;;;8.07;;
68821;SDS011;55834;50.870;4.606;2023-02-24T16:19:32;8.02;;;5.30;;
68821;SDS011;55834;50.870;4.606;2023-02-24T16:21:58;13.10;;;5.88;;
68821;SDS011;55834;50.870;4.606;2023-02-24T16:24:25;8.50;;;5.78;;
68821;SDS011;55834;50.870;4.606;2023-02-24T16:26:50;14.17;;;6.17;;
68821;SDS011;55834;50.870;4.606;2023-02-24T16:29:15;14.18;;;6.38;;
68821;SDS011;55834;50.870;4.606;2023-02-24T16:31:41;11.60;;;7.17;;
68821;SDS011;55834;50.870;4.606;2023-02-24T16:34:06;12.30;;;6.85;;
68821;SDS011;55834;50.870;4.606;2023-02-24T16:36:32;10.68;;;6.32;;
68821;SDS011;55834;50.870;4.606;2023-02-24T16:39:00;11.70;;;7.30;;
68821;SDS011;55834;50.870;4.606;2023-02-24T16:41:26;13.35;;;7.05;;
68821;SDS011;55834;50.870;4.606;2023-02-24T16:43:51;13.53;;;7.17;;
68821;SDS011;55834;50.870;4.606;2023-02-24T16:46:20;12.23;;;7.57;;
68821;SDS011;55834;50.870;4.606;2023-02-24T16:48:47;19.58;;;8.48;;
68821;SDS011;55834;50.870;4.606;2023-02-24T16:51:14;13.70;;;6.93;;
68821;SDS011;55834;50.870;4.606;2023-02-24T16:53:40;14.43;;;6.75;;
68821;SDS011;55834;50.870;4.606;2023-02-24T16:56:07;11.63;;;6.60;;
68821;SDS011;55834;50.870;4.606;2023-02-24T16:58:33;7.53;;;4.63;;
68821;SDS011;55834;50.870;4.606;2023-02-24T17:00:59;11.15;;;4.18;;
68821;SDS011;55834;50.870;4.606;2023-02-24T17:03:45;5.47;;;3.70;;
68821;SDS011;55834;50.870;4.606;2023-02-24T17:06:13;7.60;;;5.20;;
68821;SDS011;55834;50.870;4.606;2023-02-24T17:08:39;9.75;;;5.00;;
68821;SDS011;55834;50.870;4.606;2023-02-24T17:11:11;10.18;;;5.25;;
68821;SDS011;55834;50.870;4.606;2023-02-24T17:13:38;10.65;;;5.38;;
68821;SDS011;55834;50.870;4.606;2023-02-24T17:16:03;7.43;;;4.90;;
68821;SDS011;55834;50.870;4.606;2023-02-24T17:18:28;9.65;;;5.50;;
68821;SDS011;55834;50.870;4.606;2023-02-24T17:20:54;11.43;;;5.20;;
68821;SDS011;55834;50.870;4.606;2023-02-24T17:23:19;11.35;;;4.53;;
68821;SDS011;55834;50.870;4.606;2023-02-24T17:25:46;12.80;;;4.63;;
68821;SDS011;55834;50.870;4.606;2023-02-24T17:28:16;10.48;;;4.43;;
68821;SDS011;55834;50.870;4.606;2023-02-24T17:30:42;10.85;;;3.90;;
68821;SDS011;55834;50.870;4.606;2023-02-24T17:33:07;13.50;;;3.53;;
68821;SDS011;55834;50.870;4.606;2023-02-24T17:35:32;9.03;;;3.20;;
68821;SDS011;55834;50.870;4.606;2023-02-24T17:37:58;7.07;;;2.58;;
68821;SDS011;55834;50.870;4.606;2023-02-24T17:40:23;11.83;;;2.70;;
68821;SDS011;55834;50.870;4.606;2023-02-24T17:42:50;3.22;;;1.23;;
68821;SDS011;55834;50.870;4.606;2023-02-24T17:45:16;15.07;;;3.45;;
68821;SDS011;55834;50.870;4.606;2023-02-24T17:47:42;7.35;;;1.67;;
68821;SDS011;55834;50.870;4.606;2023-02-24T17:50:07;2.80;;;1.23;;
68821;SDS011;55834;50.870;4.606;2023-02-24T17:52:34;13.05;;;3.55;;